sensor_id;sensor_type;location;lat;lon;timestamp;P1;durP1;ratioP1;P2;durP2;ratioP2
25559;SDS011;13450;49.374;8.584;2023-05-07T00:02:20;4.57;;;1.90;;
25559;SDS011;13450;49.374;8.584;2023-05-07T00:04:45;4.15;;;2.10;;
25559;SDS011;13450;49.374;8.584;2023-05-07T00:07:11;3.58;;;2.00;;
25559;SDS011;13450;49.374;8.584;2023-05-07T00:09:36;3.83;;;1.85;;
25559;SDS011;13450;49.374;8.584;2023-05-07T00:12:01;6.63;;;2.38;;
25559;SDS011;13450;49.374;8.584;2023-05-07T00:14:27;5.35;;;1.80;;
25559;SDS011;13450;49.374;8.584;2023-05-07T00:16:52;3.80;;;1.80;;
25559;SDS011;13450;49.374;8.584;2023-05-07T00:19:17;3.45;;;1.80;;
25559;SDS011;13450;49.374;8.584;2023-05-07T00:21:43;3.88;;;1.70;;
25559;SDS011;13450;49.374;8.584;2023-05-07T00:24:10;4.25;;;1.55;;
25559;SDS011;13450;49.374;8.584;2023-05-07T00:26:38;3.67;;;1.50;;
25559;SDS011;13450;49.374;8.584;2023-05-07T00:29:03;4.88;;;1.80;;
25559;SDS011;13450;49.374;8.584;2023-05-07T00:31:28;3.60;;;1.58;;
25559;SDS011;13450;49.374;8.584;2023-05-07T00:33:54;4.55;;;1.98;;
25559;SDS011;13450;49.374;8.584;2023-05-07T00:36:19;4.05;;;1.75;;
25559;SDS011;13450;49.374;8.584;2023-05-07T00:38:44;3.03;;;1.63;;
25559;SDS011;13450;49.374;8.584;2023-05-07T00:41:10;4.75;;;1.95;;
25559;SDS011;13450;49.374;8.584;2023-05-07T00:43:35;4.03;;;2.13;;
25559;SDS011;13450;49.374;8.584;2023-05-07T00:46:00;3.80;;;1.77;;
25559;SDS011;13450;49.374;8.584;2023-05-07T00:48:26;2.95;;;1.67;;
25559;SDS011;13450;49.374;8.584;2023-05-07T00:50:51;4.13;;;1.98;;
25559;SDS011;13450;49.374;8.584;2023-05-07T00:53:17;3.00;;;1.50;;
25559;SDS011;13450;49.374;8.584;2023-05-07T00:55:42;3.72;;;1.70;;
25559;SDS011;13450;49.374;8.584;2023-05-07T00:58:07;5.20;;;2.45;;
25559;SDS011;13450;49.374;8.584;2023-05-07T01:00:33;4.25;;;1.83;;
25559;SDS011;13450;49.374;8.584;2023-05-07T01:02:58;4.78;;;2.15;;
25559;SDS011;13450;49.374;8.584;2023-05-07T01:05:24;3.80;;;1.83;;
25559;SDS011;13450;49.374;8.584;2023-05-07T01:07:53;4.82;;;2.38;;
25559;SDS011;13450;49.374;8.584;2023-05-07T01:10:20;7.18;;;2.70;;
25559;SDS011;13450;49.374;8.584;2023-05-07T01:12:49;6.25;;;2.95;;
25559;SDS011;13450;49.374;8.584;2023-05-07T01:15:15;6.13;;;2.63;;
25559;SDS011;13450;49.374;8.584;2023-05-07T01:17:41;6.68;;;2.95;;
25559;SDS011;13450;49.374;8.584;2023-05-07T01:20:07;6.47;;;2.58;;
25559;SDS011;13450;49.374;8.584;2023-05-07T01:22:34;5.18;;;2.10;;
25559;SDS011;13450;49.374;8.584;2023-05-07T01:25:01;4.53;;;2.40;;
25559;SDS011;13450;49.374;8.584;2023-05-07T01:27:28;4.63;;;2.00;;
25559;SDS011;13450;49.374;8.584;2023-05-07T01:29:53;4.80;;;2.08;;
25559;SDS011;13450;49.374;8.584;2023-05-07T01:32:21;4.57;;;2.20;;
25559;SDS011;13450;49.374;8.584;2023-05-07T01:35:11;6.65;;;2.35;;
25559;SDS011;13450;49.374;8.584;2023-05-07T01:37:39;5.73;;;2.07;;
25559;SDS011;13450;49.374;8.584;2023-05-07T01:40:05;5.78;;;2.70;;
25559;SDS011;13450;49.374;8.584;2023-05-07T01:42:32;6.75;;;3.15;;
25559;SDS011;13450;49.374;8.584;2023-05-07T01:44:57;5.30;;;2.35;;
25559;SDS011;13450;49.374;8.584;2023-05-07T01:47:23;4.15;;;2.10;;
25559;SDS011;13450;49.374;8.584;2023-05-07T01:49:49;4.90;;;2.30;;
25559;SDS011;13450;49.374;8.584;2023-05-07T01:52:15;8.73;;;2.72;;
25559;SDS011;13450;49.374;8.584;2023-05-07T01:54:40;6.47;;;2.95;;
25559;SDS011;13450;49.374;8.584;2023-05-07T01:57:06;3.92;;;2.17;;
25559;SDS011;13450;49.374;8.584;2023-05-07T01:59:31;5.65;;;2.75;;
25559;SDS011;13450;49.374;8.584;2023-05-07T02:01:57;4.40;;;2.10;;
25559;SDS011;13450;49.374;8.584;2023-05-07T02:04:22;4.20;;;2.40;;
25559;SDS011;13450;49.374;8.584;2023-05-07T02:06:47;5.18;;;2.75;;
25559;SDS011;13450;49.374;8.584;2023-05-07T02:09:13;3.70;;;1.92;;
25559;SDS011;13450;49.374;8.584;2023-05-07T02:11:40;8.10;;;2.60;;
25559;SDS011;13450;49.374;8.584;2023-05-07T02:14:05;3.75;;;1.90;;
25559;SDS011;13450;49.374;8.584;2023-05-07T02:16:31;7.05;;;2.55;;
25559;SDS011;13450;49.374;8.584;2023-05-07T02:18:56;4.13;;;2.13;;
25559;SDS011;13450;49.374;8.584;2023-05-07T02:21:23;4.88;;;2.35;;
25559;SDS011;13450;49.374;8.584;2023-05-07T02:23:48;4.00;;;2.17;;
25559;SDS011;13450;49.374;8.584;2023-05-07T02:26:13;4.05;;;2.00;;
25559;SDS011;13450;49.374;8.584;2023-05-07T02:28:38;5.13;;;2.20;;
25559;SDS011;13450;49.374;8.584;2023-05-07T02:31:04;4.68;;;2.53;;
25559;SDS011;13450;49.374;8.584;2023-05-07T02:33:31;4.57;;;2.40;;
25559;SDS011;13450;49.374;8.584;2023-05-07T02:35:57;4.95;;;2.60;;
25559;SDS011;13450;49.374;8.584;2023-05-07T02:38:33;4.05;;;2.40;;
25559;SDS011;13450;49.374;8.584;2023-05-07T02:40:59;4.07;;;1.90;;
25559;SDS011;13450;49.374;8.584;2023-05-07T02:43:24;3.80;;;2.00;;
25559;SDS011;13450;49.374;8.584;2023-05-07T02:45:59;3.72;;;1.88;;
25559;SDS011;13450;49.374;8.584;2023-05-07T02:48:32;4.45;;;2.03;;
25559;SDS011;13450;49.374;8.584;2023-05-07T02:50:58;4.80;;;1.63;;
25559;SDS011;13450;49.374;8.584;2023-05-07T02:53:24;3.83;;;2.10;;
25559;SDS011;13450;49.374;8.584;2023-05-07T02:55:53;3.78;;;2.00;;
25559;SDS011;13450;49.374;8.584;2023-05-07T02:58:22;4.80;;;2.22;;
25559;SDS011;13450;49.374;8.584;2023-05-07T03:00:47;5.57;;;2.53;;
25559;SDS011;13450;49.374;8.584;2023-05-07T03:03:13;6.13;;;2.30;;
25559;SDS011;13450;49.374;8.584;2023-05-07T03:05:39;7.22;;;2.30;;
25559;SDS011;13450;49.374;8.584;2023-05-07T03:08:04;4.35;;;2.40;;
25559;SDS011;13450;49.374;8.584;2023-05-07T03:10:29;5.07;;;2.33;;
25559;SDS011;13450;49.374;8.584;2023-05-07T03:12:55;4.45;;;2.50;;
25559;SDS011;13450;49.374;8.584;2023-05-07T03:15:20;4.63;;;1.95;;
25559;SDS011;13450;49.374;8.584;2023-05-07T03:17:46;5.22;;;2.17;;
25559;SDS011;13450;49.374;8.584;2023-05-07T03:20:12;4.45;;;2.20;;
25559;SDS011;13450;49.374;8.584;2023-05-07T03:22:38;4.35;;;2.60;;
25559;SDS011;13450;49.374;8.584;2023-05-07T03:25:06;3.97;;;1.88;;
25559;SDS011;13450;49.374;8.584;2023-05-07T03:27:32;4.05;;;2.03;;
25559;SDS011;13450;49.374;8.584;2023-05-07T03:29:57;5.38;;;2.85;;
25559;SDS011;13450;49.374;8.584;2023-05-07T03:32:25;5.75;;;2.15;;
25559;SDS011;13450;49.374;8.584;2023-05-07T03:34:51;5.45;;;2.20;;
25559;SDS011;13450;49.374;8.584;2023-05-07T03:37:16;4.03;;;2.38;;
25559;SDS011;13450;49.374;8.584;2023-05-07T03:39:42;4.80;;;2.67;;
25559;SDS011;13450;49.374;8.584;2023-05-07T03:42:07;5.00;;;2.80;;
25559;SDS011;13450;49.374;8.584;2023-05-07T03:44:32;3.40;;;2.05;;
25559;SDS011;13450;49.374;8.584;2023-05-07T03:46:57;5.72;;;2.40;;
25559;SDS011;13450;49.374;8.584;2023-05-07T03:49:23;6.50;;;2.53;;
25559;SDS011;13450;49.374;8.584;2023-05-07T03:51:48;4.55;;;2.17;;
25559;SDS011;13450;49.374;8.584;2023-05-07T03:54:13;4.55;;;2.20;;
25559;SDS011;13450;49.374;8.584;2023-05-07T03:56:39;4.90;;;2.45;;
25559;SDS011;13450;49.374;8.584;2023-05-07T03:59:04;4.82;;;1.95;;
25559;SDS011;13450;49.374;8.584;2023-05-07T04:01:32;4.80;;;2.60;;
25559;SDS011;13450;49.374;8.584;2023-05-07T04:03:57;5.57;;;2.92;;
25559;SDS011;13450;49.374;8.584;2023-05-07T04:06:23;5.30;;;2.30;;
25559;SDS011;13450;49.374;8.584;2023-05-07T04:08:49;4.82;;;2.63;;
25559;SDS011;13450;49.374;8.584;2023-05-07T04:11:14;9.07;;;2.85;;
25559;SDS011;13450;49.374;8.584;2023-05-07T04:13:39;4.22;;;2.20;;
25559;SDS011;13450;49.374;8.584;2023-05-07T04:16:05;4.40;;;2.10;;
25559;SDS011;13450;49.374;8.584;2023-05-07T04:18:30;4.75;;;2.20;;
25559;SDS011;13450;49.374;8.584;2023-05-07T04:20:58;4.57;;;2.65;;
25559;SDS011;13450;49.374;8.584;2023-05-07T04:23:26;5.00;;;1.90;;
25559;SDS011;13450;49.374;8.584;2023-05-07T04:25:53;3.63;;;1.92;;
25559;SDS011;13450;49.374;8.584;2023-05-07T04:28:19;3.95;;;2.25;;
25559;SDS011;13450;49.374;8.584;2023-05-07T04:30:44;3.72;;;2.20;;
25559;SDS011;13450;49.374;8.584;2023-05-07T04:33:14;6.20;;;2.92;;
25559;SDS011;13450;49.374;8.584;2023-05-07T04:35:43;3.83;;;2.08;;
25559;SDS011;13450;49.374;8.584;2023-05-07T04:38:08;4.18;;;2.40;;
25559;SDS011;13450;49.374;8.584;2023-05-07T04:40:35;4.50;;;2.50;;
25559;SDS011;13450;49.374;8.584;2023-05-07T04:43:00;4.90;;;2.45;;
25559;SDS011;13450;49.374;8.584;2023-05-07T04:45:26;4.75;;;2.47;;
25559;SDS011;13450;49.374;8.584;2023-05-07T04:47:51;5.18;;;2.47;;
25559;SDS011;13450;49.374;8.584;2023-05-07T04:50:18;6.38;;;2.72;;
25559;SDS011;13450;49.374;8.584;2023-05-07T04:52:45;4.57;;;2.72;;
25559;SDS011;13450;49.374;8.584;2023-05-07T04:55:10;5.18;;;2.65;;
25559;SDS011;13450;49.374;8.584;2023-05-07T04:57:36;4.68;;;2.80;;
25559;SDS011;13450;49.374;8.584;2023-05-07T05:00:02;4.85;;;2.35;;
25559;SDS011;13450;49.374;8.584;2023-05-07T05:02:29;7.57;;;2.95;;
25559;SDS011;13450;49.374;8.584;2023-05-07T05:04:54;5.45;;;2.83;;
25559;SDS011;13450;49.374;8.584;2023-05-07T05:07:19;6.65;;;2.63;;
25559;SDS011;13450;49.374;8.584;2023-05-07T05:09:45;5.90;;;2.60;;
25559;SDS011;13450;49.374;8.584;2023-05-07T05:12:10;4.47;;;2.30;;
25559;SDS011;13450;49.374;8.584;2023-05-07T05:14:35;6.78;;;2.88;;
25559;SDS011;13450;49.374;8.584;2023-05-07T05:17:03;4.97;;;2.42;;
25559;SDS011;13450;49.374;8.584;2023-05-07T05:19:28;5.38;;;2.65;;
25559;SDS011;13450;49.374;8.584;2023-05-07T05:21:56;7.28;;;2.53;;
25559;SDS011;13450;49.374;8.584;2023-05-07T05:24:21;5.22;;;3.30;;
25559;SDS011;13450;49.374;8.584;2023-05-07T05:26:47;4.75;;;2.40;;
25559;SDS011;13450;49.374;8.584;2023-05-07T05:29:12;6.95;;;3.00;;
25559;SDS011;13450;49.374;8.584;2023-05-07T05:31:40;7.25;;;3.00;;
25559;SDS011;13450;49.374;8.584;2023-05-07T05:34:06;6.85;;;2.80;;
25559;SDS011;13450;49.374;8.584;2023-05-07T05:36:31;6.40;;;2.92;;
25559;SDS011;13450;49.374;8.584;2023-05-07T05:38:57;6.72;;;3.00;;
25559;SDS011;13450;49.374;8.584;2023-05-07T05:41:22;6.72;;;2.83;;
25559;SDS011;13450;49.374;8.584;2023-05-07T05:43:48;5.85;;;2.67;;
25559;SDS011;13450;49.374;8.584;2023-05-07T05:46:13;4.72;;;2.28;;
25559;SDS011;13450;49.374;8.584;2023-05-07T05:48:42;4.65;;;2.65;;
25559;SDS011;13450;49.374;8.584;2023-05-07T05:51:07;8.55;;;3.65;;
25559;SDS011;13450;49.374;8.584;2023-05-07T05:53:32;5.43;;;2.78;;
25559;SDS011;13450;49.374;8.584;2023-05-07T05:55:58;5.88;;;2.65;;
25559;SDS011;13450;49.374;8.584;2023-05-07T05:58:24;5.13;;;2.58;;
25559;SDS011;13450;49.374;8.584;2023-05-07T06:00:49;3.95;;;2.30;;
25559;SDS011;13450;49.374;8.584;2023-05-07T06:03:17;4.95;;;2.30;;
25559;SDS011;13450;49.374;8.584;2023-05-07T06:05:45;4.53;;;2.60;;
25559;SDS011;13450;49.374;8.584;2023-05-07T06:08:11;4.78;;;2.75;;
25559;SDS011;13450;49.374;8.584;2023-05-07T06:10:36;5.35;;;2.85;;
25559;SDS011;13450;49.374;8.584;2023-05-07T06:13:02;6.25;;;3.00;;
25559;SDS011;13450;49.374;8.584;2023-05-07T06:15:27;6.28;;;2.80;;
25559;SDS011;13450;49.374;8.584;2023-05-07T06:17:52;5.85;;;2.63;;
25559;SDS011;13450;49.374;8.584;2023-05-07T06:20:18;6.35;;;3.00;;
25559;SDS011;13450;49.374;8.584;2023-05-07T06:22:43;5.90;;;2.67;;
25559;SDS011;13450;49.374;8.584;2023-05-07T06:25:08;6.97;;;3.10;;
25559;SDS011;13450;49.374;8.584;2023-05-07T06:27:34;4.95;;;2.75;;
25559;SDS011;13450;49.374;8.584;2023-05-07T06:29:59;5.72;;;2.90;;
25559;SDS011;13450;49.374;8.584;2023-05-07T06:32:25;4.82;;;2.75;;
25559;SDS011;13450;49.374;8.584;2023-05-07T06:34:50;5.03;;;2.40;;
25559;SDS011;13450;49.374;8.584;2023-05-07T06:37:15;5.38;;;2.58;;
25559;SDS011;13450;49.374;8.584;2023-05-07T06:39:41;5.25;;;2.35;;
25559;SDS011;13450;49.374;8.584;2023-05-07T06:42:06;4.30;;;2.20;;
25559;SDS011;13450;49.374;8.584;2023-05-07T06:44:34;5.40;;;2.60;;
25559;SDS011;13450;49.374;8.584;2023-05-07T06:46:59;5.55;;;2.50;;
25559;SDS011;13450;49.374;8.584;2023-05-07T06:49:29;7.28;;;3.20;;
25559;SDS011;13450;49.374;8.584;2023-05-07T06:51:54;5.32;;;2.65;;
25559;SDS011;13450;49.374;8.584;2023-05-07T06:54:22;5.10;;;2.55;;
25559;SDS011;13450;49.374;8.584;2023-05-07T06:56:48;6.07;;;2.33;;
25559;SDS011;13450;49.374;8.584;2023-05-07T06:59:13;4.07;;;2.20;;
25559;SDS011;13450;49.374;8.584;2023-05-07T07:01:38;5.13;;;2.38;;
25559;SDS011;13450;49.374;8.584;2023-05-07T07:04:04;5.20;;;2.20;;
25559;SDS011;13450;49.374;8.584;2023-05-07T07:06:29;3.63;;;1.80;;
25559;SDS011;13450;49.374;8.584;2023-05-07T07:08:56;4.85;;;2.00;;
25559;SDS011;13450;49.374;8.584;2023-05-07T07:11:22;3.05;;;1.73;;
25559;SDS011;13450;49.374;8.584;2023-05-07T07:13:47;4.13;;;2.20;;
25559;SDS011;13450;49.374;8.584;2023-05-07T07:16:13;5.03;;;1.92;;
25559;SDS011;13450;49.374;8.584;2023-05-07T07:18:40;4.40;;;2.10;;
25559;SDS011;13450;49.374;8.584;2023-05-07T07:21:08;3.92;;;2.08;;
25559;SDS011;13450;49.374;8.584;2023-05-07T07:23:33;3.35;;;1.92;;
25559;SDS011;13450;49.374;8.584;2023-05-07T07:25:59;4.03;;;1.83;;
25559;SDS011;13450;49.374;8.584;2023-05-07T07:28:24;4.25;;;2.33;;
25559;SDS011;13450;49.374;8.584;2023-05-07T07:30:49;5.28;;;2.10;;
25559;SDS011;13450;49.374;8.584;2023-05-07T07:33:15;3.92;;;2.00;;
25559;SDS011;13450;49.374;8.584;2023-05-07T07:35:40;5.53;;;1.80;;
25559;SDS011;13450;49.374;8.584;2023-05-07T07:38:06;5.88;;;1.75;;
25559;SDS011;13450;49.374;8.584;2023-05-07T07:40:31;3.88;;;1.70;;
25559;SDS011;13450;49.374;8.584;2023-05-07T07:42:56;4.05;;;1.77;;
25559;SDS011;13450;49.374;8.584;2023-05-07T07:45:22;3.88;;;1.83;;
25559;SDS011;13450;49.374;8.584;2023-05-07T07:47:47;4.85;;;2.10;;
25559;SDS011;13450;49.374;8.584;2023-05-07T07:50:12;4.45;;;2.35;;
25559;SDS011;13450;49.374;8.584;2023-05-07T07:52:38;3.95;;;2.00;;
25559;SDS011;13450;49.374;8.584;2023-05-07T07:55:03;3.55;;;1.75;;
25559;SDS011;13450;49.374;8.584;2023-05-07T07:57:29;3.75;;;2.00;;
25559;SDS011;13450;49.374;8.584;2023-05-07T07:59:55;5.05;;;2.00;;
25559;SDS011;13450;49.374;8.584;2023-05-07T08:02:20;4.03;;;1.65;;
25559;SDS011;13450;49.374;8.584;2023-05-07T08:04:48;3.65;;;1.77;;
25559;SDS011;13450;49.374;8.584;2023-05-07T08:07:13;4.03;;;1.63;;
25559;SDS011;13450;49.374;8.584;2023-05-07T08:09:39;3.08;;;1.55;;
25559;SDS011;13450;49.374;8.584;2023-05-07T08:12:05;3.22;;;1.60;;
25559;SDS011;13450;49.374;8.584;2023-05-07T08:14:32;3.78;;;1.80;;
25559;SDS011;13450;49.374;8.584;2023-05-07T08:17:00;4.05;;;1.70;;
25559;SDS011;13450;49.374;8.584;2023-05-07T08:19:27;3.42;;;1.65;;
25559;SDS011;13450;49.374;8.584;2023-05-07T08:21:53;3.17;;;1.60;;
25559;SDS011;13450;49.374;8.584;2023-05-07T08:24:18;4.32;;;1.67;;
25559;SDS011;13450;49.374;8.584;2023-05-07T08:26:44;3.22;;;1.35;;
25559;SDS011;13450;49.374;8.584;2023-05-07T08:29:10;4.68;;;1.60;;
25559;SDS011;13450;49.374;8.584;2023-05-07T08:31:35;4.25;;;1.60;;
25559;SDS011;13450;49.374;8.584;2023-05-07T08:34:00;2.95;;;1.40;;
25559;SDS011;13450;49.374;8.584;2023-05-07T08:36:26;3.25;;;1.30;;
25559;SDS011;13450;49.374;8.584;2023-05-07T08:38:53;2.80;;;1.55;;
25559;SDS011;13450;49.374;8.584;2023-05-07T08:41:19;7.28;;;1.70;;
25559;SDS011;13450;49.374;8.584;2023-05-07T08:43:47;2.72;;;1.40;;
25559;SDS011;13450;49.374;8.584;2023-05-07T08:46:15;5.10;;;1.45;;
25559;SDS011;13450;49.374;8.584;2023-05-07T08:48:42;3.85;;;1.50;;
25559;SDS011;13450;49.374;8.584;2023-05-07T08:51:08;3.85;;;1.50;;
25559;SDS011;13450;49.374;8.584;2023-05-07T08:53:40;3.40;;;1.50;;
25559;SDS011;13450;49.374;8.584;2023-05-07T08:56:06;3.47;;;1.30;;
25559;SDS011;13450;49.374;8.584;2023-05-07T08:58:33;4.13;;;1.30;;
25559;SDS011;13450;49.374;8.584;2023-05-07T09:00:59;3.95;;;1.10;;
25559;SDS011;13450;49.374;8.584;2023-05-07T09:03:32;2.30;;;1.17;;
25559;SDS011;13450;49.374;8.584;2023-05-07T09:06:00;2.50;;;1.15;;
25559;SDS011;13450;49.374;8.584;2023-05-07T09:08:26;4.40;;;1.20;;
25559;SDS011;13450;49.374;8.584;2023-05-07T09:10:52;2.85;;;1.38;;
25559;SDS011;13450;49.374;8.584;2023-05-07T09:13:20;2.88;;;1.20;;
25559;SDS011;13450;49.374;8.584;2023-05-07T09:15:46;3.30;;;1.40;;
25559;SDS011;13450;49.374;8.584;2023-05-07T09:18:14;2.90;;;1.20;;
25559;SDS011;13450;49.374;8.584;2023-05-07T09:20:40;2.50;;;1.10;;
25559;SDS011;13450;49.374;8.584;2023-05-07T09:23:06;2.13;;;1.10;;
25559;SDS011;13450;49.374;8.584;2023-05-07T09:25:33;2.85;;;1.02;;
25559;SDS011;13450;49.374;8.584;2023-05-07T09:28:00;2.35;;;1.05;;
25559;SDS011;13450;49.374;8.584;2023-05-07T09:30:27;2.38;;;1.05;;
25559;SDS011;13450;49.374;8.584;2023-05-07T09:32:54;3.40;;;1.30;;
25559;SDS011;13450;49.374;8.584;2023-05-07T09:35:19;2.67;;;1.20;;
25559;SDS011;13450;49.374;8.584;2023-05-07T09:37:49;2.78;;;1.30;;
25559;SDS011;13450;49.374;8.584;2023-05-07T09:40:21;3.50;;;1.40;;
25559;SDS011;13450;49.374;8.584;2023-05-07T09:42:48;2.50;;;1.40;;
25559;SDS011;13450;49.374;8.584;2023-05-07T09:45:14;3.55;;;1.70;;
25559;SDS011;13450;49.374;8.584;2023-05-07T09:47:40;3.15;;;1.65;;
25559;SDS011;13450;49.374;8.584;2023-05-07T09:50:09;3.22;;;1.40;;
25559;SDS011;13450;49.374;8.584;2023-05-07T09:52:37;2.47;;;1.17;;
25559;SDS011;13450;49.374;8.584;2023-05-07T09:55:05;4.03;;;1.50;;
25559;SDS011;13450;49.374;8.584;2023-05-07T09:57:32;3.17;;;1.50;;
25559;SDS011;13450;49.374;8.584;2023-05-07T09:59:58;3.83;;;1.50;;
25559;SDS011;13450;49.374;8.584;2023-05-07T10:02:26;3.78;;;1.70;;
25559;SDS011;13450;49.374;8.584;2023-05-07T10:04:55;3.65;;;1.65;;
25559;SDS011;13450;49.374;8.584;2023-05-07T10:07:23;4.10;;;1.60;;
25559;SDS011;13450;49.374;8.584;2023-05-07T10:09:50;5.97;;;1.85;;
25559;SDS011;13450;49.374;8.584;2023-05-07T10:12:19;2.88;;;1.40;;
25559;SDS011;13450;49.374;8.584;2023-05-07T10:14:45;3.38;;;1.42;;
25559;SDS011;13450;49.374;8.584;2023-05-07T10:17:11;3.50;;;1.50;;
25559;SDS011;13450;49.374;8.584;2023-05-07T10:19:42;2.97;;;1.08;;
25559;SDS011;13450;49.374;8.584;2023-05-07T10:22:09;4.13;;;1.40;;
25559;SDS011;13450;49.374;8.584;2023-05-07T10:24:38;2.70;;;1.40;;
25559;SDS011;13450;49.374;8.584;2023-05-07T10:27:08;2.95;;;1.40;;
25559;SDS011;13450;49.374;8.584;2023-05-07T10:32:35;3.17;;;1.50;;
25559;SDS011;13450;49.374;8.584;2023-05-07T10:35:06;2.92;;;1.40;;
25559;SDS011;13450;49.374;8.584;2023-05-07T10:37:36;3.70;;;1.33;;
25559;SDS011;13450;49.374;8.584;2023-05-07T10:40:02;3.40;;;1.33;;
25559;SDS011;13450;49.374;8.584;2023-05-07T10:42:28;2.97;;;1.50;;
25559;SDS011;13450;49.374;8.584;2023-05-07T10:44:53;2.50;;;1.30;;
25559;SDS011;13450;49.374;8.584;2023-05-07T10:47:18;3.90;;;1.48;;
25559;SDS011;13450;49.374;8.584;2023-05-07T10:52:19;4.20;;;1.55;;
25559;SDS011;13450;49.374;8.584;2023-05-07T10:54:48;2.60;;;1.40;;
25559;SDS011;13450;49.374;8.584;2023-05-07T10:57:42;3.63;;;2.00;;
25559;SDS011;13450;49.374;8.584;2023-05-07T11:05:25;3.28;;;1.48;;
25559;SDS011;13450;49.374;8.584;2023-05-07T11:07:55;2.20;;;1.30;;
25559;SDS011;13450;49.374;8.584;2023-05-07T11:10:47;3.00;;;1.38;;
25559;SDS011;13450;49.374;8.584;2023-05-07T11:13:17;2.85;;;1.33;;
25559;SDS011;13450;49.374;8.584;2023-05-07T11:15:46;3.25;;;1.02;;
25559;SDS011;13450;49.374;8.584;2023-05-07T11:18:16;3.30;;;1.10;;
25559;SDS011;13450;49.374;8.584;2023-05-07T11:26:08;2.40;;;0.80;;
25559;SDS011;13450;49.374;8.584;2023-05-07T11:28:38;1.63;;;0.88;;
25559;SDS011;13450;49.374;8.584;2023-05-07T11:31:10;1.73;;;0.90;;
25559;SDS011;13450;49.374;8.584;2023-05-07T11:33:36;1.83;;;1.08;;
25559;SDS011;13450;49.374;8.584;2023-05-07T11:36:03;1.52;;;0.90;;
25559;SDS011;13450;49.374;8.584;2023-05-07T11:38:30;1.75;;;0.80;;
25559;SDS011;13450;49.374;8.584;2023-05-07T11:40:56;1.70;;;0.90;;
25559;SDS011;13450;49.374;8.584;2023-05-07T11:43:23;2.33;;;1.02;;
25559;SDS011;13450;49.374;8.584;2023-05-07T11:45:49;2.45;;;1.02;;
25559;SDS011;13450;49.374;8.584;2023-05-07T11:48:16;1.55;;;0.75;;
25559;SDS011;13450;49.374;8.584;2023-05-07T11:50:51;1.70;;;0.93;;
25559;SDS011;13450;49.374;8.584;2023-05-07T11:53:20;3.33;;;1.00;;
25559;SDS011;13450;49.374;8.584;2023-05-07T11:55:52;1.88;;;0.80;;
25559;SDS011;13450;49.374;8.584;2023-05-07T11:58:20;1.88;;;0.90;;
25559;SDS011;13450;49.374;8.584;2023-05-07T12:00:49;3.05;;;1.10;;
25559;SDS011;13450;49.374;8.584;2023-05-07T12:03:15;2.20;;;0.80;;
25559;SDS011;13450;49.374;8.584;2023-05-07T12:05:41;2.47;;;1.00;;
25559;SDS011;13450;49.374;8.584;2023-05-07T12:08:08;2.22;;;0.80;;
25559;SDS011;13450;49.374;8.584;2023-05-07T12:10:40;1.77;;;0.98;;
25559;SDS011;13450;49.374;8.584;2023-05-07T12:13:13;2.25;;;1.05;;
25559;SDS011;13450;49.374;8.584;2023-05-07T12:15:42;2.78;;;1.00;;
25559;SDS011;13450;49.374;8.584;2023-05-07T12:18:08;1.73;;;0.98;;
25559;SDS011;13450;49.374;8.584;2023-05-07T12:20:34;2.10;;;1.00;;
25559;SDS011;13450;49.374;8.584;2023-05-07T12:23:00;2.70;;;1.10;;
25559;SDS011;13450;49.374;8.584;2023-05-07T12:25:26;2.42;;;1.02;;
25559;SDS011;13450;49.374;8.584;2023-05-07T12:27:52;2.65;;;1.30;;
25559;SDS011;13450;49.374;8.584;2023-05-07T12:30:18;2.85;;;1.15;;
25559;SDS011;13450;49.374;8.584;2023-05-07T12:32:44;2.28;;;1.17;;
25559;SDS011;13450;49.374;8.584;2023-05-07T12:35:10;2.22;;;1.00;;
25559;SDS011;13450;49.374;8.584;2023-05-07T12:37:35;1.25;;;0.90;;
25559;SDS011;13450;49.374;8.584;2023-05-07T12:40:08;2.65;;;1.25;;
25559;SDS011;13450;49.374;8.584;2023-05-07T12:42:35;3.00;;;1.40;;
25559;SDS011;13450;49.374;8.584;2023-05-07T12:45:08;1.60;;;1.10;;
25559;SDS011;13450;49.374;8.584;2023-05-07T12:47:37;1.88;;;1.08;;
25559;SDS011;13450;49.374;8.584;2023-05-07T12:50:05;2.47;;;1.02;;
25559;SDS011;13450;49.374;8.584;2023-05-07T12:52:31;2.33;;;1.05;;
25559;SDS011;13450;49.374;8.584;2023-05-07T12:55:04;2.80;;;1.20;;
25559;SDS011;13450;49.374;8.584;2023-05-07T12:57:30;3.83;;;1.10;;
25559;SDS011;13450;49.374;8.584;2023-05-07T12:59:57;1.95;;;1.02;;
25559;SDS011;13450;49.374;8.584;2023-05-07T13:02:31;2.53;;;1.15;;
25559;SDS011;13450;49.374;8.584;2023-05-07T13:04:57;2.60;;;1.20;;
25559;SDS011;13450;49.374;8.584;2023-05-07T13:07:24;2.92;;;1.15;;
25559;SDS011;13450;49.374;8.584;2023-05-07T13:09:50;2.07;;;1.23;;
25559;SDS011;13450;49.374;8.584;2023-05-07T13:12:15;3.58;;;1.00;;
25559;SDS011;13450;49.374;8.584;2023-05-07T13:14:41;1.63;;;1.00;;
25559;SDS011;13450;49.374;8.584;2023-05-07T13:17:06;2.90;;;1.10;;
25559;SDS011;13450;49.374;8.584;2023-05-07T13:19:31;1.70;;;1.00;;
25559;SDS011;13450;49.374;8.584;2023-05-07T13:21:56;2.15;;;1.02;;
25559;SDS011;13450;49.374;8.584;2023-05-07T13:24:22;3.25;;;1.20;;
25559;SDS011;13450;49.374;8.584;2023-05-07T13:26:47;3.65;;;1.23;;
25559;SDS011;13450;49.374;8.584;2023-05-07T13:29:12;5.47;;;1.35;;
25559;SDS011;13450;49.374;8.584;2023-05-07T13:31:38;3.00;;;1.38;;
25559;SDS011;13450;49.374;8.584;2023-05-07T13:34:07;5.03;;;1.10;;
25559;SDS011;13450;49.374;8.584;2023-05-07T13:36:32;3.67;;;1.20;;
25559;SDS011;13450;49.374;8.584;2023-05-07T13:39:02;3.70;;;1.60;;
25559;SDS011;13450;49.374;8.584;2023-05-07T13:41:28;3.03;;;1.30;;
25559;SDS011;13450;49.374;8.584;2023-05-07T13:43:57;2.38;;;1.20;;
25559;SDS011;13450;49.374;8.584;2023-05-07T13:46:23;2.53;;;1.33;;
25559;SDS011;13450;49.374;8.584;2023-05-07T13:48:48;3.08;;;1.55;;
25559;SDS011;13450;49.374;8.584;2023-05-07T13:51:16;3.22;;;1.50;;
25559;SDS011;13450;49.374;8.584;2023-05-07T13:53:42;3.22;;;1.63;;
25559;SDS011;13450;49.374;8.584;2023-05-07T13:56:07;2.78;;;1.30;;
25559;SDS011;13450;49.374;8.584;2023-05-07T13:58:32;3.58;;;1.30;;
25559;SDS011;13450;49.374;8.584;2023-05-07T14:00:58;2.80;;;1.30;;
25559;SDS011;13450;49.374;8.584;2023-05-07T14:03:23;3.67;;;1.60;;
25559;SDS011;13450;49.374;8.584;2023-05-07T14:05:48;4.53;;;1.60;;
25559;SDS011;13450;49.374;8.584;2023-05-07T14:08:14;2.97;;;1.45;;
25559;SDS011;13450;49.374;8.584;2023-05-07T14:10:39;3.13;;;1.33;;
25559;SDS011;13450;49.374;8.584;2023-05-07T14:13:05;4.60;;;1.40;;
25559;SDS011;13450;49.374;8.584;2023-05-07T14:15:31;3.83;;;1.38;;
25559;SDS011;13450;49.374;8.584;2023-05-07T14:17:57;3.63;;;1.63;;
25559;SDS011;13450;49.374;8.584;2023-05-07T14:20:24;3.15;;;1.27;;
25559;SDS011;13450;49.374;8.584;2023-05-07T14:22:49;3.38;;;1.35;;
25559;SDS011;13450;49.374;8.584;2023-05-07T14:25:15;2.70;;;1.17;;
25559;SDS011;13450;49.374;8.584;2023-05-07T14:27:40;4.07;;;1.10;;
25559;SDS011;13450;49.374;8.584;2023-05-07T14:30:05;1.92;;;1.10;;
25559;SDS011;13450;49.374;8.584;2023-05-07T14:32:32;2.63;;;1.20;;
25559;SDS011;13450;49.374;8.584;2023-05-07T14:34:57;2.88;;;0.90;;
25559;SDS011;13450;49.374;8.584;2023-05-07T14:37:23;3.53;;;1.48;;
25559;SDS011;13450;49.374;8.584;2023-05-07T14:39:51;2.45;;;0.82;;
25559;SDS011;13450;49.374;8.584;2023-05-07T14:42:21;3.00;;;1.30;;
25559;SDS011;13450;49.374;8.584;2023-05-07T14:44:46;2.72;;;0.82;;
25559;SDS011;13450;49.374;8.584;2023-05-07T14:47:13;4.82;;;1.17;;
25559;SDS011;13450;49.374;8.584;2023-05-07T14:49:38;2.95;;;1.40;;
25559;SDS011;13450;49.374;8.584;2023-05-07T14:52:04;3.00;;;1.25;;
25559;SDS011;13450;49.374;8.584;2023-05-07T14:54:32;2.50;;;1.20;;
25559;SDS011;13450;49.374;8.584;2023-05-07T14:56:59;4.10;;;1.47;;
25559;SDS011;13450;49.374;8.584;2023-05-07T14:59:24;2.88;;;1.30;;
25559;SDS011;13450;49.374;8.584;2023-05-07T15:01:50;2.97;;;1.23;;